KAXN/AXN METAR and TAF weather

Enter ICAO airport designator
Station Type Date Time Source
KAXN METAR 2020/06/05 12:53 UTC NOAA

KAXN 051253Z AUTO 00000KT 10SM CLR 18/11 A2994 RMK AO2 SLP135 T01830106


Station Type Date Time Source
KAXN Decoded METAR 2020/06/05 12:53 UTC NOAA

CHANDLER FIELD, MN, United States (KAXN) 45-52N 095-24W 433M
Jun 05, 2020 - 08:53 AM EDT / 2020.06.05 1253 UTC
Wind: Calm:0
Visibility: 10 mile(s):0
Sky conditions: clear
Temperature: 64.9 F (18.3 C)
Dew Point: 51.1 F (10.6 C)
Relative Humidity: 60%
Pressure (altimeter): 29.94 in. Hg (1013 hPa)
ob: KAXN 051253Z AUTO 00000KT 10SM CLR 18/11 A2994 RMK AO2 SLP135 T01830106
cycle: 13

Station Type Date Time Source
KAXN TAF 2020/06/05 12:34 UTC NOAA

TAF KAXN 051132Z 0512/0612 33006KT P6SM SKC
FM052000 32014G21KT P6SM SKC
FM060100 34006KT P6SM SKC
FM060300 02005KT P6SM SKC
FM060600 05006KT P6SM SKC
FM061000 08006KT P6SM FEW200

Example: see airport list